Time;durP1;ratioP1;P1;durP2;ratioP2;P2;SDS_P1;SDS_P2;PMS_P1;PMS_P2;Temp;Humidity;BMP_temperature;BMP_pressure;BME280_temperature;BME280_humidity;BME280_pressure;Samples;Min_cycle;Max_cycle;Signal;HPM_P1;HPM_P2
2023/11/04 00:02:17;;;;;;;3.07;1.23;;;4.50;99.90;;;;;;5071222;28;20060;-81
2023/11/04 00:04:43;;;;;;;2.03;1.10;;;4.50;99.90;;;;;;5069284;28;20025;-81
2023/11/04 00:07:09;;;;;;;3.27;1.10;;;4.50;99.90;;;;;;5066878;28;20029;-81
2023/11/04 00:09:35;;;;;;;2.57;1.20;;;4.40;99.90;;;;;;5066537;28;20047;-81
2023/11/04 00:12:01;;;;;;;2.83;1.30;;;4.50;99.90;;;;;;5066969;28;20028;-81
2023/11/04 00:14:26;;;;;;;4.13;1.10;;;4.50;99.90;;;;;;5065617;28;20036;-81
2023/11/04 00:16:52;;;;;;;1.93;1.20;;;4.50;99.90;;;;;;5064431;28;20051;-81
2023/11/04 00:19:18;;;;;;;2.00;1.53;;;4.50;99.90;;;;;;5065742;28;20038;-81
2023/11/04 00:21:43;;;;;;;2.93;1.20;;;4.50;99.90;;;;;;5064808;28;20028;-81
2023/11/04 00:24:12;;;;;;;1.80;1.27;;;4.50;99.90;;;;;;5066068;28;20028;-81
2023/11/04 00:26:38;;;;;;;2.97;1.37;;;4.50;99.90;;;;;;5067190;28;20035;-81
2023/11/04 00:29:07;;;;;;;1.83;1.27;;;4.50;99.90;;;;;;5068802;28;20032;-81
2023/11/04 00:31:34;;;;;;;1.73;1.10;;;4.50;99.90;;;;;;5069433;28;20079;-81
2023/11/04 00:34:01;;;;;;;2.30;1.20;;;4.50;99.90;;;;;;5072324;28;20118;-81
2023/11/04 00:36:27;;;;;;;1.70;1.30;;;4.50;99.90;;;;;;5073245;28;20032;-81
2023/11/04 00:38:52;;;;;;;2.47;1.17;;;4.50;99.90;;;;;;5075355;28;21368;-81
2023/11/04 00:41:21;;;;;;;1.80;1.10;;;4.50;99.90;;;;;;5074122;28;20036;-81
2023/11/04 00:43:46;;;;;;;2.30;1.23;;;4.40;99.90;;;;;;5072392;28;20113;-81
2023/11/04 00:46:12;;;;;;;2.77;1.27;;;4.50;99.90;;;;;;5071233;28;20056;-81
2023/11/04 00:48:38;;;;;;;2.53;1.10;;;4.40;99.90;;;;;;5072314;28;20040;-81
2023/11/04 00:51:04;;;;;;;1.53;0.93;;;4.40;99.90;;;;;;5073043;28;20024;-81
2023/11/04 00:53:30;;;;;;;1.40;1.10;;;4.40;99.90;;;;;;5072226;28;20055;-81
2023/11/04 00:55:55;;;;;;;3.07;1.40;;;4.30;99.90;;;;;;5072098;28;20033;-81
2023/11/04 00:58:21;;;;;;;1.70;0.90;;;4.30;99.90;;;;;;5073123;28;20024;-81
2023/11/04 01:00:46;;;;;;;1.93;1.10;;;4.30;99.90;;;;;;5072228;28;20089;-81
2023/11/04 01:03:12;;;;;;;1.43;1.00;;;4.20;99.90;;;;;;5072710;28;20029;-81
2023/11/04 01:05:38;;;;;;;3.10;1.00;;;4.20;99.90;;;;;;5072489;28;20039;-80
2023/11/04 01:08:04;;;;;;;1.80;1.17;;;4.20;99.90;;;;;;5071554;28;20115;-80
2023/11/04 01:10:31;;;;;;;1.80;1.00;;;4.10;99.90;;;;;;5075482;28;20041;-81
2023/11/04 01:12:56;;;;;;;2.23;1.50;;;4.10;99.90;;;;;;5077237;28;20028;-81
2023/11/04 01:15:22;;;;;;;2.00;1.30;;;4.10;99.90;;;;;;5076649;28;20419;-81
2023/11/04 01:17:47;;;;;;;3.30;1.00;;;4.10;99.90;;;;;;5084564;28;20025;-81
2023/11/04 01:20:13;;;;;;;1.93;1.40;;;4.00;99.90;;;;;;5104798;28;20020;-80
2023/11/04 01:22:39;;;;;;;1.87;1.00;;;4.00;99.90;;;;;;5105682;28;20020;-81
2023/11/04 01:25:05;;;;;;;1.60;1.00;;;4.00;99.90;;;;;;5081859;28;20028;-81
2023/11/04 01:27:30;;;;;;;2.50;1.20;;;4.00;99.90;;;;;;5073310;28;20050;-80
2023/11/04 01:29:56;;;;;;;1.90;1.07;;;4.00;99.90;;;;;;5072172;28;20081;-81
2023/11/04 01:32:21;;;;;;;1.43;1.00;;;4.00;99.90;;;;;;5073779;28;20046;-81
2023/11/04 01:34:47;;;;;;;3.13;1.27;;;4.00;99.90;;;;;;5073187;28;20546;-81
2023/11/04 01:37:13;;;;;;;1.60;0.93;;;4.00;99.90;;;;;;5072975;28;20051;-80
2023/11/04 01:39:40;;;;;;;2.17;1.00;;;4.00;99.90;;;;;;5071392;28;20048;-81
2023/11/04 01:42:06;;;;;;;1.67;0.97;;;3.90;99.90;;;;;;5070238;28;20471;-81
2023/11/04 01:44:33;;;;;;;2.07;0.90;;;3.90;99.90;;;;;;5071096;28;20082;-81
2023/11/04 01:46:59;;;;;;;3.00;1.10;;;3.90;99.90;;;;;;5070449;28;20033;-81
2023/11/04 01:49:26;;;;;;;1.57;1.00;;;3.90;99.90;;;;;;5069621;28;20034;-81
2023/11/04 01:51:54;;;;;;;2.70;1.00;;;3.90;99.90;;;;;;5071272;28;20013;-81
2023/11/04 01:54:21;;;;;;;2.07;1.23;;;3.80;99.90;;;;;;5070417;28;20540;-81
2023/11/04 01:56:47;;;;;;;1.40;1.10;;;3.80;99.90;;;;;;5070430;28;20032;-81
2023/11/04 01:59:13;;;;;;;1.20;0.90;;;3.80;99.90;;;;;;5069919;28;20036;-81
2023/11/04 02:01:45;;;;;;;1.63;1.00;;;3.80;99.90;;;;;;5070882;28;20043;-81
2023/11/04 02:04:12;;;;;;;1.70;1.20;;;3.80;99.90;;;;;;5071001;28;20027;-81
2023/11/04 02:06:38;;;;;;;1.80;1.20;;;3.90;99.90;;;;;;5070956;28;20024;-81
2023/11/04 02:09:04;;;;;;;3.17;1.00;;;3.90;99.90;;;;;;5070616;28;20063;-81
2023/11/04 02:11:29;;;;;;;2.20;1.20;;;3.90;99.90;;;;;;5071184;28;20029;-81
2023/11/04 02:13:55;;;;;;;2.23;1.07;;;3.90;99.90;;;;;;5071555;28;20127;-81
2023/11/04 02:16:21;;;;;;;1.07;0.97;;;3.90;99.90;;;;;;5070842;28;20111;-81
2023/11/04 02:18:46;;;;;;;3.13;1.00;;;3.90;99.90;;;;;;5070528;28;20167;-81
2023/11/04 02:21:12;;;;;;;1.47;1.00;;;3.90;99.90;;;;;;5071384;28;20032;-81
2023/11/04 02:23:39;;;;;;;1.40;1.03;;;4.00;99.90;;;;;;5070936;28;20029;-81
2023/11/04 02:26:05;;;;;;;4.80;1.30;;;4.00;99.90;;;;;;5070796;28;20028;-81
2023/11/04 02:28:31;;;;;;;1.93;0.97;;;4.00;99.90;;;;;;5071175;28;20030;-81
2023/11/04 02:30:58;;;;;;;2.10;1.33;;;4.00;99.90;;;;;;5071875;28;20084;-81
2023/11/04 02:33:24;;;;;;;2.40;1.00;;;3.90;99.90;;;;;;5071592;28;20184;-81
2023/11/04 02:35:49;;;;;;;1.60;1.07;;;4.00;99.90;;;;;;5071144;28;20430;-81
2023/11/04 02:38:16;;;;;;;1.50;1.00;;;4.00;99.90;;;;;;5071292;28;20155;-81
2023/11/04 02:40:41;;;;;;;1.30;1.03;;;3.90;99.90;;;;;;5070343;28;20032;-81
2023/11/04 02:43:07;;;;;;;2.17;1.17;;;3.90;99.90;;;;;;5071746;28;20028;-81
2023/11/04 02:45:34;;;;;;;1.70;1.20;;;3.90;99.90;;;;;;5070937;28;20479;-81
2023/11/04 02:48:01;;;;;;;2.20;1.00;;;3.80;99.90;;;;;;5071146;28;20441;-81
2023/11/04 02:50:27;;;;;;;9.17;1.77;;;3.80;99.90;;;;;;5070946;28;20716;-81
2023/11/04 02:52:52;;;;;;;2.47;0.93;;;3.80;99.90;;;;;;5071459;28;20035;-81
2023/11/04 02:55:18;;;;;;;2.57;0.93;;;3.80;99.90;;;;;;5071004;28;20033;-81
2023/11/04 02:57:43;;;;;;;2.07;1.20;;;3.80;99.90;;;;;;5070764;28;20046;-81
2023/11/04 03:00:11;;;;;;;1.57;1.00;;;3.80;99.90;;;;;;5070403;28;20099;-81
2023/11/04 03:02:36;;;;;;;1.17;0.90;;;3.80;99.90;;;;;;5071382;28;20028;-81
2023/11/04 03:05:04;;;;;;;6.10;1.97;;;3.80;99.90;;;;;;5070418;28;20039;-82
2023/11/04 03:07:30;;;;;;;1.67;1.10;;;3.80;99.90;;;;;;5071083;28;20139;-81
2023/11/04 03:09:56;;;;;;;1.47;1.07;;;3.80;99.90;;;;;;5071792;28;20024;-81
2023/11/04 03:12:21;;;;;;;2.07;1.00;;;3.80;99.90;;;;;;5076059;28;20051;-81
2023/11/04 03:14:47;;;;;;;3.77;1.20;;;3.90;99.90;;;;;;5075918;28;20052;-82
2023/11/04 03:17:12;;;;;;;2.63;1.20;;;3.90;99.90;;;;;;5077060;28;20670;-81
2023/11/04 03:19:38;;;;;;;1.43;0.93;;;3.90;99.90;;;;;;5076738;28;20024;-81
2023/11/04 03:22:04;;;;;;;1.73;1.20;;;3.90;99.90;;;;;;5072311;28;20034;-81
2023/11/04 03:24:29;;;;;;;2.23;1.10;;;4.00;99.90;;;;;;5070398;28;21304;-81
2023/11/04 03:26:55;;;;;;;2.40;1.10;;;3.90;99.90;;;;;;5070928;28;20161;-81
2023/11/04 03:29:21;;;;;;;1.60;0.90;;;4.00;99.90;;;;;;5070368;28;20031;-80
2023/11/04 03:31:46;;;;;;;2.43;1.10;;;4.00;99.90;;;;;;5070655;28;20028;-81
2023/11/04 03:34:12;;;;;;;1.70;1.33;;;4.00;99.90;;;;;;5070508;28;20935;-82
2023/11/04 03:36:38;;;;;;;4.00;0.97;;;4.00;99.90;;;;;;5069031;28;20108;-82
2023/11/04 03:39:03;;;;;;;3.00;1.03;;;4.10;99.90;;;;;;5070341;28;20028;-82
2023/11/04 03:41:29;;;;;;;1.37;0.80;;;4.10;99.90;;;;;;5070649;28;20082;-81
2023/11/04 03:43:56;;;;;;;2.63;1.07;;;4.10;99.90;;;;;;5069614;28;20023;-82
2023/11/04 03:46:21;;;;;;;1.93;1.10;;;4.10;99.90;;;;;;5069159;28;20032;-81
2023/11/04 03:48:48;;;;;;;2.50;1.03;;;4.10;99.90;;;;;;5070114;28;20032;-81
2023/11/04 03:51:13;;;;;;;1.33;1.10;;;4.10;99.90;;;;;;5069091;28;20391;-82
2023/11/04 03:53:39;;;;;;;2.33;1.20;;;4.20;99.90;;;;;;5069386;28;20019;-81
2023/11/04 03:56:06;;;;;;;1.73;1.23;;;4.20;99.90;;;;;;5068588;28;20032;-81
2023/11/04 03:58:31;;;;;;;1.27;1.00;;;4.10;99.90;;;;;;5070964;28;20090;-81
2023/11/04 04:00:57;;;;;;;2.70;1.20;;;4.20;99.90;;;;;;5070882;28;20024;-81
2023/11/04 04:03:22;;;;;;;2.17;1.20;;;4.10;99.90;;;;;;5071298;28;20031;-82
2023/11/04 04:05:48;;;;;;;1.73;1.50;;;4.10;99.90;;;;;;5074973;28;20047;-82
2023/11/04 04:08:15;;;;;;;2.63;1.40;;;4.10;99.90;;;;;;5075327;28;20028;-81
2023/11/04 04:10:40;;;;;;;2.03;1.30;;;4.10;99.90;;;;;;5076179;28;20020;-81
2023/11/04 04:13:06;;;;;;;2.83;1.20;;;4.10;99.90;;;;;;5087087;28;20059;-82
2023/11/04 04:15:31;;;;;;;1.70;1.30;;;4.10;99.90;;;;;;5101691;28;20004;-81
2023/11/04 04:17:58;;;;;;;1.50;1.23;;;4.10;99.90;;;;;;5083084;28;20036;-81
2023/11/04 04:20:24;;;;;;;1.97;1.37;;;4.10;99.90;;;;;;5068405;28;20063;-82
2023/11/04 04:22:49;;;;;;;1.80;1.40;;;4.00;99.90;;;;;;5066779;28;20119;-82
2023/11/04 04:25:15;;;;;;;2.43;1.33;;;4.10;99.90;;;;;;5067950;28;20036;-81
2023/11/04 04:27:41;;;;;;;2.20;1.50;;;4.00;99.90;;;;;;5071366;28;20033;-82
2023/11/04 04:30:07;;;;;;;2.33;1.30;;;4.10;99.90;;;;;;5071226;28;20028;-81
2023/11/04 04:32:33;;;;;;;2.00;1.30;;;4.00;99.90;;;;;;5070280;28;20528;-81
2023/11/04 04:34:59;;;;;;;3.10;1.40;;;4.00;99.90;;;;;;5069413;28;20032;-82
2023/11/04 04:37:25;;;;;;;1.67;1.30;;;4.00;99.90;;;;;;5070201;28;20051;-82
2023/11/04 04:39:51;;;;;;;2.03;1.40;;;3.90;99.90;;;;;;5069784;28;20016;-82
2023/11/04 04:42:16;;;;;;;2.60;1.43;;;3.90;99.90;;;;;;5072223;28;20519;-81
2023/11/04 04:44:42;;;;;;;1.90;1.40;;;3.90;99.90;;;;;;5070244;28;20108;-82
2023/11/04 04:47:08;;;;;;;1.70;1.27;;;3.90;99.90;;;;;;5069413;28;20139;-82
2023/11/04 04:49:33;;;;;;;1.60;1.30;;;3.90;99.90;;;;;;5069608;28;20108;-81
2023/11/04 04:51:59;;;;;;;3.33;1.40;;;3.80;99.90;;;;;;5070038;28;20023;-82
2023/11/04 04:54:25;;;;;;;1.70;1.33;;;3.80;99.90;;;;;;5069013;28;20025;-82
2023/11/04 04:56:50;;;;;;;3.93;1.50;;;3.80;99.90;;;;;;5069103;28;20032;-82
2023/11/04 04:59:16;;;;;;;1.97;1.40;;;3.70;99.90;;;;;;5069063;28;20070;-81
2023/11/04 05:01:42;;;;;;;1.73;1.30;;;3.70;99.90;;;;;;5070055;28;20036;-82
2023/11/04 05:04:09;;;;;;;2.60;1.47;;;3.70;99.90;;;;;;5069177;28;20033;-81
2023/11/04 05:06:34;;;;;;;3.57;1.30;;;3.70;99.90;;;;;;5069296;28;20070;-81
2023/11/04 05:09:00;;;;;;;3.10;1.27;;;3.60;99.90;;;;;;5068903;28;20083;-81
2023/11/04 05:11:26;;;;;;;2.57;1.40;;;3.60;99.90;;;;;;5068979;28;20035;-82
2023/11/04 05:13:52;;;;;;;1.73;1.40;;;3.50;99.90;;;;;;5068834;28;20029;-82
2023/11/04 05:16:18;;;;;;;2.07;1.50;;;3.50;99.90;;;;;;5069126;28;20072;-81
2023/11/04 05:18:44;;;;;;;2.37;1.70;;;3.50;99.90;;;;;;5068697;28;20055;-81
2023/11/04 05:21:09;;;;;;;2.40;1.57;;;3.50;99.90;;;;;;5070101;28;20091;-81
2023/11/04 05:23:35;;;;;;;1.50;1.20;;;3.40;99.90;;;;;;5071151;28;20089;-81
2023/11/04 05:26:01;;;;;;;1.73;1.30;;;3.40;99.90;;;;;;5072112;28;20059;-81
2023/11/04 05:28:27;;;;;;;1.87;1.30;;;3.40;99.90;;;;;;5071045;28;20040;-81
2023/11/04 05:30:52;;;;;;;1.47;1.27;;;3.40;99.90;;;;;;5072658;28;20035;-82
2023/11/04 05:33:19;;;;;;;1.17;1.07;;;3.30;99.90;;;;;;5072632;28;20028;-82
2023/11/04 05:35:45;;;;;;;1.57;1.20;;;3.30;99.90;;;;;;5072763;28;20066;-82
2023/11/04 05:38:11;;;;;;;2.20;1.50;;;3.30;99.90;;;;;;5072599;28;20052;-82
2023/11/04 05:40:37;;;;;;;1.83;1.20;;;3.30;99.90;;;;;;5072294;28;20462;-81
2023/11/04 05:43:02;;;;;;;2.20;1.37;;;3.30;99.90;;;;;;5072777;28;20622;-81
2023/11/04 05:45:28;;;;;;;2.47;1.50;;;3.30;99.90;;;;;;5071054;28;20037;-81
2023/11/04 05:47:53;;;;;;;1.83;1.23;;;3.20;99.90;;;;;;5071347;28;20434;-82
2023/11/04 05:50:19;;;;;;;1.93;1.30;;;3.20;99.90;;;;;;5071118;28;20062;-81
2023/11/04 05:52:45;;;;;;;1.57;1.30;;;3.20;99.90;;;;;;5069998;28;20032;-81
2023/11/04 05:55:11;;;;;;;2.63;1.40;;;3.20;99.90;;;;;;5069520;28;20051;-81
2023/11/04 05:57:38;;;;;;;2.87;1.40;;;3.20;99.90;;;;;;5069378;28;20036;-82
2023/11/04 06:00:07;;;;;;;2.77;1.30;;;3.20;99.90;;;;;;5074929;28;20024;-81
2023/11/04 06:02:33;;;;;;;3.97;1.83;;;3.20;99.90;;;;;;5076173;28;20033;-81
2023/11/04 06:04:58;;;;;;;1.83;1.40;;;3.20;99.90;;;;;;5078718;28;20086;-82
2023/11/04 06:07:24;;;;;;;2.83;1.20;;;3.10;99.90;;;;;;5074486;28;20036;-81
2023/11/04 06:09:49;;;;;;;3.07;1.40;;;3.10;99.90;;;;;;5070635;28;20040;-81
2023/11/04 06:12:16;;;;;;;2.10;1.53;;;3.10;99.90;;;;;;5070938;28;20036;-82
2023/11/04 06:14:44;;;;;;;1.57;1.30;;;3.10;99.90;;;;;;5071479;28;20336;-82
2023/11/04 06:17:12;;;;;;;4.07;1.40;;;3.00;99.90;;;;;;5071232;28;20032;-82
2023/11/04 06:19:37;;;;;;;2.67;1.50;;;3.00;99.90;;;;;;5070626;28;20051;-82
2023/11/04 06:22:03;;;;;;;1.37;1.10;;;3.00;99.90;;;;;;5071355;28;20028;-81
2023/11/04 06:24:29;;;;;;;1.97;1.43;;;3.00;99.90;;;;;;5070778;28;20029;-82
2023/11/04 06:26:56;;;;;;;1.57;1.30;;;2.90;99.90;;;;;;5070611;28;20421;-81
2023/11/04 06:29:22;;;;;;;2.10;1.33;;;2.90;99.90;;;;;;5067184;28;20036;-81
2023/11/04 06:31:47;;;;;;;3.43;1.23;;;3.00;99.90;;;;;;5068489;28;20024;-82
2023/11/04 06:34:13;;;;;;;13.37;2.70;;;3.00;99.90;;;;;;5070802;28;20048;-81
2023/11/04 06:36:39;;;;;;;6.77;1.90;;;3.00;99.90;;;;;;5071392;28;20063;-82
2023/11/04 06:39:05;;;;;;;2.20;1.20;;;3.00;99.90;;;;;;5069577;28;20814;-81
2023/11/04 06:41:31;;;;;;;1.57;1.10;;;2.90;99.90;;;;;;5068399;28;20111;-81
2023/11/04 06:43:57;;;;;;;1.20;1.10;;;3.00;99.90;;;;;;5067483;28;20095;-82
2023/11/04 06:46:22;;;;;;;1.77;1.40;;;3.00;99.90;;;;;;5067123;28;20438;-82
2023/11/04 06:48:48;;;;;;;2.17;1.27;;;3.00;99.90;;;;;;5068077;28;20113;-82
2023/11/04 06:51:18;;;;;;;1.73;1.37;;;3.00;99.90;;;;;;5068692;28;20020;-81
2023/11/04 06:53:44;;;;;;;3.47;1.40;;;3.00;99.90;;;;;;5069715;28;20107;-82
2023/11/04 06:56:09;;;;;;;2.17;1.20;;;3.10;99.90;;;;;;5069878;28;20116;-82
2023/11/04 06:58:35;;;;;;;2.60;1.17;;;3.10;99.90;;;;;;5073351;28;20056;-82
2023/11/04 07:01:01;;;;;;;1.97;1.50;;;3.10;99.90;;;;;;5076114;28;20032;-82
2023/11/04 07:03:29;;;;;;;2.40;1.23;;;3.10;99.90;;;;;;5074309;28;20032;-81
2023/11/04 07:05:55;;;;;;;1.63;1.17;;;3.20;99.90;;;;;;5093074;28;20127;-81
2023/11/04 07:08:21;;;;;;;2.23;1.27;;;3.20;99.90;;;;;;5105695;28;20063;-82
2023/11/04 07:10:47;;;;;;;1.97;1.10;;;3.20;99.90;;;;;;5097445;28;20040;-82
2023/11/04 07:13:13;;;;;;;1.57;1.10;;;3.20;99.90;;;;;;5072398;28;20050;-82
2023/11/04 07:15:43;;;;;;;1.80;1.20;;;3.30;99.90;;;;;;5071152;28;20072;-81
2023/11/04 07:18:10;;;;;;;3.43;1.40;;;3.30;99.90;;;;;;5071647;28;20037;-82
2023/11/04 07:20:37;;;;;;;2.20;1.20;;;3.40;99.90;;;;;;5072708;28;20094;-81
2023/11/04 07:23:03;;;;;;;2.30;1.40;;;3.40;99.90;;;;;;5073071;28;20031;-82
2023/11/04 07:25:30;;;;;;;4.57;1.13;;;3.50;99.90;;;;;;5072897;28;20032;-82
2023/11/04 07:27:58;;;;;;;3.00;1.50;;;3.60;99.90;;;;;;5073445;28;20043;-82
2023/11/04 07:30:23;;;;;;;2.27;1.37;;;3.70;99.90;;;;;;5072666;28;20036;-82
2023/11/04 07:32:49;;;;;;;1.77;1.10;;;3.70;99.90;;;;;;5073497;28;20029;-82
2023/11/04 07:35:15;;;;;;;3.03;1.10;;;3.80;99.90;;;;;;5072094;28;20032;-82
2023/11/04 07:37:40;;;;;;;2.27;1.13;;;3.90;99.90;;;;;;5070937;28;20084;-82
2023/11/04 07:40:07;;;;;;;2.27;1.13;;;4.00;99.90;;;;;;5070310;28;20100;-82
2023/11/04 07:42:33;;;;;;;2.47;1.37;;;4.10;99.90;;;;;;5070377;28;20670;-82
2023/11/04 07:44:59;;;;;;;1.50;1.10;;;4.20;99.90;;;;;;5070070;28;20021;-81
2023/11/04 07:47:24;;;;;;;2.10;1.27;;;4.30;99.90;;;;;;5070542;28;20402;-81
2023/11/04 07:49:51;;;;;;;2.10;1.20;;;4.40;99.90;;;;;;5071177;28;20041;-81
2023/11/04 07:52:17;;;;;;;1.17;1.00;;;4.50;99.90;;;;;;5070648;28;20032;-82
2023/11/04 07:54:42;;;;;;;1.53;1.17;;;4.60;99.90;;;;;;5068496;28;20119;-81
2023/11/04 07:57:08;;;;;;;3.60;1.03;;;4.70;99.90;;;;;;5066725;28;20025;-82
2023/11/04 07:59:34;;;;;;;1.20;1.10;;;4.80;99.90;;;;;;5066772;28;20028;-82
2023/11/04 08:02:00;;;;;;;1.37;0.90;;;5.00;99.90;;;;;;5066460;28;20111;-81
2023/11/04 08:04:26;;;;;;;1.10;1.00;;;5.10;99.90;;;;;;5066911;28;20538;-82
2023/11/04 08:06:52;;;;;;;1.97;1.13;;;5.20;99.90;;;;;;5065836;28;20073;-82
2023/11/04 08:09:21;;;;;;;1.60;1.00;;;5.30;99.90;;;;;;5065459;28;20040;-82
2023/11/04 08:11:46;;;;;;;3.50;1.20;;;5.40;99.90;;;;;;5065344;28;20050;-82
2023/11/04 08:14:12;;;;;;;2.77;1.00;;;5.50;99.90;;;;;;5064828;28;20028;-82
2023/11/04 08:16:38;;;;;;;1.53;1.30;;;5.60;99.90;;;;;;5063734;28;20029;-82
2023/11/04 08:19:05;;;;;;;1.63;1.00;;;5.80;99.90;;;;;;5063810;28;20112;-82
2023/11/04 08:21:32;;;;;;;1.87;1.13;;;5.90;99.90;;;;;;5066968;28;20043;-81
2023/11/04 08:23:58;;;;;;;4.07;1.30;;;6.00;99.90;;;;;;5065311;28;20140;-82
2023/11/04 08:26:24;;;;;;;2.03;1.40;;;6.20;99.90;;;;;;5065737;28;20099;-82
2023/11/04 08:28:51;;;;;;;1.53;1.10;;;6.30;99.90;;;;;;5068483;28;20044;-82
2023/11/04 08:31:17;;;;;;;2.13;1.70;;;6.40;99.90;;;;;;5068345;28;20035;-82
2023/11/04 08:33:43;;;;;;;2.33;1.47;;;6.60;99.90;;;;;;5068407;28;20036;-82
2023/11/04 08:36:09;;;;;;;1.00;0.90;;;6.70;99.90;;;;;;5067415;28;20107;-82
2023/11/04 08:38:36;;;;;;;1.80;1.10;;;6.80;99.90;;;;;;5068479;28;20085;-82
2023/11/04 08:41:02;;;;;;;2.63;1.20;;;6.90;99.90;;;;;;5069156;28;20751;-82
2023/11/04 08:43:27;;;;;;;3.03;1.40;;;7.00;99.90;;;;;;5068206;28;20043;-82
2023/11/04 08:45:53;;;;;;;1.13;0.97;;;7.10;99.90;;;;;;5068020;28;21455;-83
2023/11/04 08:48:18;;;;;;;2.07;1.20;;;7.20;99.90;;;;;;5067495;28;20410;-83
2023/11/04 08:50:44;;;;;;;1.13;0.90;;;7.20;99.90;;;;;;5068505;28;20028;-82
2023/11/04 08:53:09;;;;;;;2.17;0.80;;;7.30;99.90;;;;;;5067378;28;20020;-83
2023/11/04 08:55:35;;;;;;;1.23;0.87;;;7.40;99.90;;;;;;5067694;28;20114;-83
2023/11/04 08:58:00;;;;;;;1.03;0.90;;;7.50;99.90;;;;;;5070715;28;20025;-83
2023/11/04 09:00:26;;;;;;;2.50;1.00;;;7.50;99.90;;;;;;5072133;28;20027;-83
2023/11/04 09:02:52;;;;;;;2.10;1.53;;;7.60;99.90;;;;;;5071042;28;20645;-83
2023/11/04 09:05:18;;;;;;;3.63;1.60;;;7.60;99.90;;;;;;5071115;28;20467;-82
2023/11/04 09:07:45;;;;;;;3.83;2.30;;;7.70;99.90;;;;;;5071137;28;20032;-82
2023/11/04 09:10:11;;;;;;;1.33;1.10;;;7.80;99.90;;;;;;5072044;28;20053;-83
2023/11/04 09:12:38;;;;;;;1.00;0.90;;;7.80;99.90;;;;;;5072191;28;20059;-83
2023/11/04 09:15:04;;;;;;;1.10;0.90;;;7.90;99.90;;;;;;5072236;28;21444;-83
2023/11/04 09:17:29;;;;;;;0.70;0.63;;;7.90;99.90;;;;;;5072081;28;20111;-83
2023/11/04 09:19:55;;;;;;;1.80;1.23;;;7.90;99.90;;;;;;5072159;28;20032;-82
2023/11/04 09:22:20;;;;;;;1.53;1.03;;;8.00;99.90;;;;;;5067938;28;20043;-78
2023/11/04 09:24:46;;;;;;;3.60;1.30;;;8.00;99.90;;;;;;5066326;28;20021;-83
2023/11/04 09:27:12;;;;;;;13.80;10.20;;;8.10;99.90;;;;;;5072379;28;20025;-83
2023/11/04 09:29:37;;;;;;;2.37;1.90;;;8.10;99.90;;;;;;5070011;28;20048;-82
2023/11/04 09:32:05;;;;;;;1.20;0.80;;;8.20;99.90;;;;;;5071903;28;20495;-83
2023/11/04 09:34:30;;;;;;;4.97;2.90;;;8.20;99.90;;;;;;5070783;28;20073;-82
2023/11/04 09:36:56;;;;;;;3.80;2.03;;;8.30;99.90;;;;;;5071668;28;20091;-82
2023/11/04 09:39:22;;;;;;;4.13;2.00;;;8.30;99.90;;;;;;5071184;28;20020;-82
2023/11/04 09:41:51;;;;;;;3.60;2.07;;;8.40;99.90;;;;;;5073193;28;20039;-83
2023/11/04 09:44:18;;;;;;;6.30;3.57;;;8.50;99.90;;;;;;5070779;28;20028;-83
2023/11/04 09:46:45;;;;;;;2.50;1.30;;;8.50;99.90;;;;;;5073230;28;20490;-83
2023/11/04 09:49:10;;;;;;;3.27;1.07;;;8.60;99.90;;;;;;5075060;28;20107;-83
2023/11/04 09:51:37;;;;;;;1.70;1.00;;;8.60;99.90;;;;;;5076252;28;20074;-83
2023/11/04 09:54:07;;;;;;;3.00;1.63;;;8.60;99.90;;;;;;5078827;28;20028;-82
2023/11/04 09:56:33;;;;;;;4.20;1.10;;;8.60;99.90;;;;;;5076776;28;20028;-83
2023/11/04 09:58:59;;;;;;;10.10;4.17;;;8.60;99.90;;;;;;5087207;28;20023;-83
2023/11/04 10:01:24;;;;;;;1.63;1.10;;;8.70;99.90;;;;;;5108104;28;20024;-84
2023/11/04 10:03:51;;;;;;;6.63;3.20;;;8.80;99.90;;;;;;5101713;28;20032;-83
2023/11/04 10:06:16;;;;;;;1.00;0.80;;;8.90;99.90;;;;;;5083484;28;20040;-82
2023/11/04 10:08:43;;;;;;;1.57;1.00;;;9.00;99.90;;;;;;5070492;28;20020;-83
2023/11/04 10:11:09;;;;;;;1.33;0.77;;;9.00;99.90;;;;;;5069605;28;20510;-82
2023/11/04 10:13:37;;;;;;;1.47;0.93;;;9.10;99.90;;;;;;5070065;28;20035;-82
2023/11/04 10:16:03;;;;;;;1.00;0.70;;;9.10;99.90;;;;;;5070712;28;20066;-83
2023/11/04 10:18:31;;;;;;;2.30;0.77;;;9.20;99.90;;;;;;5069684;28;20028;-83
2023/11/04 10:20:57;;;;;;;1.60;0.80;;;9.30;99.90;;;;;;5071041;28;20115;-83
2023/11/04 10:23:23;;;;;;;2.83;1.40;;;9.30;99.90;;;;;;5068519;28;20032;-83
2023/11/04 10:25:48;;;;;;;3.90;1.83;;;9.30;99.90;;;;;;5070591;28;20035;-83
2023/11/04 10:28:16;;;;;;;1.17;0.70;;;9.30;99.90;;;;;;5070893;28;20612;-83
2023/11/04 10:30:41;;;;;;;0.87;0.80;;;9.40;99.90;;;;;;5071100;28;20027;-83
2023/11/04 10:33:09;;;;;;;1.03;0.63;;;9.50;99.90;;;;;;5070474;28;20024;-82
2023/11/04 10:35:37;;;;;;;1.67;0.90;;;9.60;99.90;;;;;;5070187;28;20041;-83
2023/11/04 10:38:06;;;;;;;0.83;0.80;;;9.60;99.90;;;;;;5070863;28;20024;-82
2023/11/04 10:40:34;;;;;;;3.17;0.73;;;9.70;99.90;;;;;;5070755;28;20019;-83
2023/11/04 10:43:08;;;;;;;2.43;0.83;;;9.70;99.90;;;;;;5070039;28;20024;-82
2023/11/04 10:46:05;;;;;;;0.93;0.70;;;9.80;99.90;;;;;;5069387;28;20040;-83
2023/11/04 10:48:48;;;;;;;1.57;0.80;;;9.90;99.90;;;;;;5068220;28;20040;-83
2023/11/04 10:51:36;;;;;;;2.37;1.00;;;10.00;99.90;;;;;;5070324;28;20031;-82
2023/11/04 10:54:19;;;;;;;1.53;0.90;;;10.10;99.90;;;;;;5070476;28;20031;-82
2023/11/04 10:56:54;;;;;;;1.33;0.90;;;10.10;99.90;;;;;;5068843;28;20036;-82
2023/11/04 10:59:37;;;;;;;0.82;0.70;;;10.20;99.90;;;;;;5069772;28;20024;-84
2023/11/04 11:02:04;;;;;;;1.20;0.60;;;10.30;99.90;;;;;;5069970;28;20109;-83
2023/11/04 11:04:31;;;;;;;3.47;1.10;;;10.30;99.90;;;;;;5068820;28;20024;-83
2023/11/04 11:06:58;;;;;;;1.53;0.80;;;10.30;99.90;;;;;;5069918;28;20055;-83
2023/11/04 11:09:24;;;;;;;1.50;0.80;;;10.30;99.90;;;;;;5070239;28;20032;-82
2023/11/04 11:12:05;;;;;;;1.10;0.80;;;10.30;99.90;;;;;;5069330;28;20055;-82
2023/11/04 11:14:32;;;;;;;1.03;0.80;;;10.20;99.90;;;;;;5069657;28;20056;-83
2023/11/04 11:16:59;;;;;;;1.90;0.87;;;10.10;99.90;;;;;;5068251;28;20511;-82
2023/11/04 11:19:25;;;;;;;1.30;0.80;;;10.00;99.90;;;;;;5069869;28;20057;-83
2023/11/04 11:21:50;;;;;;;1.07;0.67;;;9.90;99.90;;;;;;5069817;28;20052;-82
2023/11/04 11:24:22;;;;;;;1.90;0.90;;;9.90;99.90;;;;;;5068540;28;20033;-83
2023/11/04 11:27:02;;;;;;;2.67;0.77;;;9.90;99.90;;;;;;5068442;28;20031;-83
2023/11/04 11:29:27;;;;;;;1.60;0.80;;;9.90;99.90;;;;;;5068938;28;20031;-83
2023/11/04 11:32:08;;;;;;;2.60;0.93;;;9.90;99.90;;;;;;5069376;28;20485;-82
2023/11/04 11:34:33;;;;;;;1.87;0.90;;;9.90;99.90;;;;;;5068065;28;20036;-83
2023/11/04 11:37:03;;;;;;;1.00;0.73;;;9.80;99.90;;;;;;5068198;28;20407;-82
2023/11/04 11:39:28;;;;;;;1.20;0.77;;;9.90;99.90;;;;;;5068272;28;20027;-82
2023/11/04 11:41:56;;;;;;;3.07;1.40;;;10.00;99.90;;;;;;5068807;28;20024;-83
2023/11/04 11:44:21;;;;;;;1.20;0.93;;;9.90;99.90;;;;;;5069106;28;20024;-82
2023/11/04 11:46:47;;;;;;;1.13;0.80;;;10.00;99.90;;;;;;5068405;28;20078;-83
2023/11/04 11:49:15;;;;;;;2.20;1.23;;;10.10;99.90;;;;;;5069121;28;20904;-83
2023/11/04 11:51:42;;;;;;;1.73;0.83;;;10.20;99.90;;;;;;5069281;28;20032;-83
2023/11/04 11:54:12;;;;;;;0.70;0.70;;;10.40;99.90;;;;;;5069478;28;20131;-83
2023/11/04 11:56:41;;;;;;;1.63;0.97;;;10.40;99.90;;;;;;5068651;28;20138;-83
2023/11/04 11:59:07;;;;;;;1.60;0.93;;;10.50;99.90;;;;;;5069941;28;20751;-83
2023/11/04 12:01:35;;;;;;;2.20;1.20;;;10.50;99.90;;;;;;5070683;28;20029;-83
2023/11/04 12:04:01;;;;;;;2.03;1.23;;;10.50;99.90;;;;;;5069416;28;20031;-83
2023/11/04 12:06:33;;;;;;;1.53;1.00;;;10.50;99.90;;;;;;5070222;28;20148;-83
2023/11/04 12:08:59;;;;;;;0.97;0.77;;;10.50;99.90;;;;;;5070934;28;20043;-83
2023/11/04 12:11:26;;;;;;;1.05;0.80;;;10.50;99.90;;;;;;5070808;28;20910;-82
2023/11/04 12:13:52;;;;;;;1.27;0.80;;;10.40;99.90;;;;;;5072343;28;20104;-82
2023/11/04 12:16:17;;;;;;;2.27;1.10;;;10.40;99.90;;;;;;5070483;28;20028;-82
2023/11/04 12:18:45;;;;;;;2.00;1.00;;;10.30;99.90;;;;;;5070795;28;20066;-83
2023/11/04 12:21:11;;;;;;;1.97;0.80;;;10.20;99.90;;;;;;5069363;28;20132;-83
2023/11/04 12:23:37;;;;;;;3.03;0.90;;;10.10;99.90;;;;;;5065274;28;20108;-83
2023/11/04 12:26:04;;;;;;;1.07;0.90;;;10.00;99.90;;;;;;5066875;28;20032;-83
2023/11/04 12:28:30;;;;;;;1.33;0.70;;;10.00;99.90;;;;;;5066035;28;20043;-82
2023/11/04 12:31:00;;;;;;;1.67;0.97;;;10.00;99.90;;;;;;5068488;28;20061;-82
2023/11/04 12:33:25;;;;;;;1.60;1.00;;;9.90;99.90;;;;;;5071590;28;20131;-86
2023/11/04 12:36:02;;;;;;;1.33;0.90;;;10.00;99.90;;;;;;5070329;28;20040;-83
2023/11/04 12:38:28;;;;;;;1.40;1.00;;;10.10;99.90;;;;;;5072800;28;20576;-83
2023/11/04 12:40:55;;;;;;;1.73;0.87;;;10.10;99.90;;;;;;5073578;28;20028;-82
2023/11/04 12:43:23;;;;;;;1.93;0.90;;;10.10;99.90;;;;;;5075855;28;20412;-83
2023/11/04 12:45:53;;;;;;;1.20;0.80;;;10.20;99.90;;;;;;5074967;28;20112;-84
2023/11/04 12:48:20;;;;;;;2.00;1.20;;;10.30;99.90;;;;;;5076685;28;20068;-83
2023/11/04 12:50:46;;;;;;;3.23;1.07;;;10.30;99.90;;;;;;5079239;28;20016;-83
2023/11/04 12:53:12;;;;;;;2.23;1.00;;;10.40;99.90;;;;;;5089903;28;20016;-85